Detall de PIREP

Printer-friendly versionPDF version

[2012/09/15 16:37:00]
Flight IATA:CT1001
Pilot Number:026
Company ICAO:CAT
Aircraft Type:F50/A
PAX:50
Aircraft Registration:PAOB
Departing Airport: LICG
Destination Airport: LICD
Alternate Airport:LMML
Online: VATSIM
Route:ROBET M740 LESMI
Flight Level:F090
No Slew and time accel
No pause
Crash detect
Detect pilot in Cockpit between each 30 and 45 minutes
16:37 Zero fuel Weight: 39057 Lbs, Fuel Weight: 2599 Lbs
16:37 VATSIM:LICG 151555Z 33012KT 9999 FEW023 SCT030 22/20 Q1011
16:37 VATSIM:LICD 151550Z 32014KT 9999 FEW030 25/15 Q1011
16:37 VOICE CATALONIAN / MEDITERRANEAN ODYSSEY LEG4
16:42 Parking Brakes off
16:47 Take-off
16:47 Take off Weight: 41555 Lbs
16:47 Wind: 329º @ 012 Knots Heading: 023º
16:47 POS N36º 49´ 02´´ E011º 58´ 10´´
16:47 Flaps:2 at 115 Knots
16:48 Gear Up: 105 Knots
16:49 Flaps:1 at 135 Knots
16:49 Flaps:0 at 134 Knots
16:57 TOC
16:57 FuelWeight: 2140 Lb
17:02 Wind:323º@029 Knots Heading: 156º Ground Speed: 237 Knots Altitude 9025 ft
17:04 TOD
17:04 Fuel Weight: 1975 Lb
19:06 UTC Jump: removed 1 Hour from Log
17:06 UTC Jump: added 1 Hour to Log
17:17 Wind:319º@022 Knots Heading: 150º Ground Speed: 189 Knots Altitude 2985 ft
17:19 Gear Down: 151 Knots
17:20 Flaps:1 at 115 Knots
17:20 Flaps:2 at 111 Knots
17:21 Flaps:3 at 109 Knots
17:22 Flaps:4 at 110 Knots
17:23 TouchDown:Rate -292 ft/min Speed: 84 Knots
17:23 VATSIM:LICD 151550Z 32014KT 9999 FEW030 25/15 Q1011
17:23 Land
17:23 Wind:319º@014 Knots
17:23 Heading: 262º
17:23 Flight Duration: 00:36
17:23 Landing Weight: 40823 Lbs
17:23 POS N35º 29´ 48´´ E012º 36´ 54´´
17:26 Parking brakes on
17:26 Block to Block Duration: 00:44
17:26 Final Fuel: 1739 Lbls
17:26 Spent Fuel: 859 Lbls
17:26 Flight Length: 63 NM
17:26 TOD Land Length: 36 NM

Exportar CSV

Powered by Drupal - Modified by Danger4k